Accueil
METAR-TAF:

METAR-TAF

Aéroports :

Épinal, France

Aéroport d'Épinal-Mirecourt

latitude: 48-19-31N, longitude: 6-04-00E, altitude: 330 m

Observation

Le bulletin a été fait il y a 22 minutes, à 21:00 UTC
Vent 4 kt de nord-ouest
Température 3°C
Humidité 93%
Pression 1014 hPa
Visibilité 10 km ou plus
Ciel couvert à une hauteur de 3300 ft
pluie faible

METAR: LFSG 262100Z AUTO 31004KT 9999 -RA OVC033 03/02 Q1014

Heure: 23:22 (21:22 UTC)


TAF: absent

Observations et prévisions météorologiques de plus de 4000 aéroports (messages METAR et TAF).

Les stations disponibles sont représentées par des disques jaunes et rouges sur la carte.

Passer la souris dessus pour voir le nom de la station.

Cliquer dessus pour voir les observations et prévisions météorologiques.

Pour changer de carte: cliquez sur les boutons verts avec une croix noire pour zoomer, sur le bouton vert avec un tiret pour effectuer un zoom arrière, ou sur les flèches vertes pour les cartes adjacentes.


METAR-TAF: